Time;durP1;ratioP1;P1;durP2;ratioP2;P2;SDS_P1;SDS_P2;PMS_P1;PMS_P2;Temp;Humidity;BMP_temperature;BMP_pressure;BME280_temperature;BME280_humidity;BME280_pressure;Samples;Min_cycle;Max_cycle;Signal;HPM_P1;HPM_P2
2021/06/07 00:00:30;;;;;;;48.15;31.20;;;;;;;17.67;100.00;101312.91;5204712;28;20033;-79
2021/06/07 00:03:00;;;;;;;44.30;32.70;;;;;;;17.88;100.00;101314.41;5198890;28;20087;-78
2021/06/07 00:05:31;;;;;;;46.47;33.25;;;;;;;17.81;100.00;101311.22;5199665;28;20109;-79
2021/06/07 00:08:01;;;;;;;44.70;32.10;;;;;;;17.85;100.00;101311.94;5194458;28;20021;-79
2021/06/07 00:10:32;;;;;;;50.45;33.72;;;;;;;17.68;100.00;101304.03;5194620;28;20026;-79
2021/06/07 00:13:05;;;;;;;50.70;34.13;;;;;;;17.79;100.00;101307.81;5198417;28;20033;-80
2021/06/07 00:15:36;;;;;;;46.55;33.10;;;;;;;17.65;100.00;101314.78;5202893;28;20041;-78
2021/06/07 00:18:06;;;;;;;43.33;32.00;;;;;;;17.72;100.00;101310.88;5199992;28;20033;-78
2021/06/07 00:20:49;;;;;;;47.45;32.95;;;;;;;17.62;100.00;101317.59;5205217;28;20126;-79
2021/06/07 00:23:20;;;;;;;41.38;30.35;;;;;;;17.63;100.00;101317.50;5199024;28;20033;-78
2021/06/07 00:25:53;;;;;;;44.15;30.60;;;;;;;17.66;100.00;101316.50;5198902;28;20083;-78
2021/06/07 00:28:24;;;;;;;45.28;30.25;;;;;;;17.69;100.00;101317.16;5182557;28;20452;-79
2021/06/07 00:30:54;;;;;;;38.35;30.15;;;;;;;17.68;100.00;101314.63;5199950;28;20037;-79
2021/06/07 00:33:24;;;;;;;39.00;29.50;;;;;;;17.63;100.00;101314.84;5200188;28;20032;-78
2021/06/07 00:35:55;;;;;;;42.53;30.42;;;;;;;17.67;100.00;101311.09;5180147;28;20040;-79
2021/06/07 00:38:26;;;;;;;43.53;30.05;;;;;;;17.34;100.00;101325.22;5200963;28;20024;-79
2021/06/07 00:40:59;;;;;;;37.38;28.60;;;;;;;17.40;100.00;101320.50;5198290;28;20092;-79
2021/06/07 00:43:29;;;;;;;37.97;28.20;;;;;;;17.53;100.00;101315.41;5200292;28;20021;-78
2021/06/07 00:46:00;;;;;;;39.45;27.63;;;;;;;17.52;100.00;101324.28;5196473;28;20032;-78
2021/06/07 00:48:31;;;;;;;38.08;28.38;;;;;;;17.43;100.00;101316.81;5201233;28;20097;-79
2021/06/07 00:51:08;;;;;;;35.88;27.27;;;;;;;17.45;100.00;101312.34;5197789;28;20511;-79
2021/06/07 00:53:39;;;;;;;35.65;26.88;;;;;;;17.50;100.00;101316.41;5197962;28;20060;-78
2021/06/07 00:56:11;;;;;;;36.80;27.35;;;;;;;17.45;100.00;101313.16;5199694;28;20045;-79
2021/06/07 00:58:46;;;;;;;35.28;26.67;;;;;;;17.54;100.00;101314.47;5202289;28;20025;-79
2021/06/07 01:01:22;;;;;;;39.22;28.55;;;;;;;17.28;100.00;101312.31;5201142;28;20033;-79
2021/06/07 01:03:54;;;;;;;;;;;;;;;17.32;100.00;101314.69;5200129;28;20029;-78
2021/06/07 01:06:25;;;;;;;37.42;27.50;;;;;;;17.30;100.00;101313.94;5201953;28;19958;-79
2021/06/07 01:08:56;;;;;;;38.13;27.48;;;;;;;17.34;100.00;101318.16;5200357;28;20025;-79
2021/06/07 01:11:26;;;;;;;42.47;28.60;;;;;;;17.37;100.00;101312.72;5200882;28;20353;-79
2021/06/07 01:13:57;;;;;;;37.97;28.52;;;;;;;17.38;100.00;101313.56;5180938;28;20072;-78
2021/06/07 01:16:27;;;;;;;36.58;28.30;;;;;;;17.28;100.00;101313.16;5202302;28;20519;-78
2021/06/07 01:18:57;;;;;;;41.72;28.17;;;;;;;17.33;100.00;101312.94;5198968;28;20506;-79
2021/06/07 01:21:28;;;;;;;35.17;27.08;;;;;;;17.31;100.00;101313.00;5205474;28;20032;-79
2021/06/07 01:23:58;;;;;;;36.60;27.85;;;;;;;17.29;100.00;101306.09;5206898;28;20029;-78
2021/06/07 01:26:28;;;;;;;34.88;25.73;;;;;;;17.32;100.00;101300.66;5200099;28;20040;-78
2021/06/07 01:28:59;;;;;;;34.85;25.48;;;;;;;17.29;100.00;101300.81;5181726;28;20025;-78
2021/06/07 01:31:29;;;;;;;37.78;25.45;;;;;;;17.30;100.00;101308.63;5183881;28;20030;-78
2021/06/07 01:34:00;;;;;;;41.60;26.17;;;;;;;17.34;100.00;101297.00;5202763;28;20028;-79
2021/06/07 01:36:30;;;;;;;34.67;24.58;;;;;;;17.32;100.00;101308.56;5200405;28;20021;-78
2021/06/07 01:39:00;;;;;;;33.40;24.17;;;;;;;17.35;100.00;101304.00;5201586;28;20025;-78
2021/06/07 01:41:31;;;;;;;30.90;23.00;;;;;;;17.32;100.00;101305.94;5198334;28;20041;-79
2021/06/07 01:44:01;;;;;;;34.85;24.98;;;;;;;17.32;100.00;101306.78;5202039;28;20041;-79
2021/06/07 01:46:31;;;;;;;28.48;23.40;;;;;;;17.26;100.00;101306.22;5182639;28;20025;-79
2021/06/07 01:49:02;;;;;;;31.83;23.83;;;;;;;17.21;100.00;101302.97;5205342;28;20067;-79
2021/06/07 01:51:32;;;;;;;31.08;23.10;;;;;;;17.28;100.00;101299.94;5202185;28;20344;-78
2021/06/07 01:54:03;;;;;;;33.33;23.85;;;;;;;17.26;100.00;101306.22;5201246;28;20025;-79
2021/06/07 01:56:35;;;;;;;33.35;23.90;;;;;;;17.22;100.00;101304.69;5201101;28;20029;-79
2021/06/07 01:59:05;;;;;;;31.27;23.45;;;;;;;17.11;100.00;101299.09;5197362;28;20026;-78
2021/06/07 02:01:35;;;;;;;32.47;23.27;;;;;;;17.17;100.00;101302.25;5201097;28;20463;-78
2021/06/07 02:04:05;;;;;;;30.80;23.13;;;;;;;17.12;100.00;101299.00;5195539;28;20076;-79
2021/06/07 02:06:36;;;;;;;29.75;23.10;;;;;;;17.12;100.00;101299.00;5200717;28;20032;-79
2021/06/07 02:09:06;;;;;;;30.52;22.92;;;;;;;17.03;100.00;101293.34;5197041;28;20111;-78
2021/06/07 02:11:37;;;;;;;28.73;21.92;;;;;;;17.14;100.00;101301.59;5199266;28;20030;-79
2021/06/07 02:14:07;;;;;;;35.15;23.23;;;;;;;17.15;100.00;101300.66;5198550;28;20085;-79
2021/06/07 02:16:39;;;;;;;28.52;22.33;;;;;;;17.13;100.00;101305.16;5204372;28;20022;-78
2021/06/07 02:19:10;;;;;;;29.15;23.00;;;;;;;17.20;100.00;101306.53;5198039;28;20057;-79
2021/06/07 02:21:40;;;;;;;31.20;22.27;;;;;;;17.17;100.00;101307.53;5200489;28;20026;-79
2021/06/07 02:24:11;;;;;;;27.17;21.27;;;;;;;17.20;100.00;101310.06;5199698;28;20033;-78
2021/06/07 02:26:41;;;;;;;29.70;21.80;;;;;;;17.19;100.00;101307.47;5198040;28;20032;-79
2021/06/07 02:29:13;;;;;;;29.42;21.30;;;;;;;17.10;100.00;101305.28;5200728;28;20060;-79
2021/06/07 02:31:44;;;;;;;28.60;21.45;;;;;;;17.08;100.00;101307.16;5201381;28;20030;-78
2021/06/07 02:34:14;;;;;;;27.52;20.60;;;;;;;17.04;100.00;101308.25;5197870;28;20044;-79
2021/06/07 02:36:45;;;;;;;27.08;21.05;;;;;;;17.10;100.00;101321.13;5198239;28;20026;-79
2021/06/07 02:39:15;;;;;;;30.73;20.40;;;;;;;17.04;100.00;101316.19;5197021;28;20034;-79
2021/06/07 02:41:46;;;;;;;29.00;20.45;;;;;;;17.00;100.00;101322.56;5198136;28;20049;-78
2021/06/07 02:44:22;;;;;;;27.48;19.85;;;;;;;16.97;100.00;101310.34;5197063;28;20507;-78
2021/06/07 02:46:52;;;;;;;24.55;19.17;;;;;;;16.88;100.00;101316.09;5198335;28;20029;-79
2021/06/07 02:49:22;;;;;;;27.40;19.23;;;;;;;16.90;100.00;101316.00;5189838;28;20034;-78
2021/06/07 02:51:53;;;;;;;26.48;18.73;;;;;;;17.01;100.00;101317.19;5180632;28;20072;-78
2021/06/07 02:54:23;;;;;;;26.20;18.90;;;;;;;16.94;100.00;101322.88;5197426;28;20073;-78
2021/06/07 02:56:53;;;;;;;23.60;18.25;;;;;;;16.99;100.00;101321.69;5197700;28;20044;-78
2021/06/07 02:59:24;;;;;;;25.15;18.20;;;;;;;16.94;100.00;101326.34;5193414;28;20029;-79
2021/06/07 03:01:54;;;;;;;23.85;17.98;;;;;;;17.05;100.00;101325.81;5197107;28;20100;-78
2021/06/07 03:04:24;;;;;;;25.70;18.50;;;;;;;17.03;100.00;101327.69;5198928;28;20029;-79
2021/06/07 03:06:55;;;;;;;23.35;17.10;;;;;;;16.96;100.00;101323.66;5194407;28;20056;-79
2021/06/07 03:09:25;;;;;;;23.90;18.05;;;;;;;16.90;100.00;101327.44;5197460;28;20418;-79
2021/06/07 03:11:55;;;;;;;25.88;17.42;;;;;;;16.96;100.00;101321.00;5196197;28;20022;-79
2021/06/07 03:14:26;;;;;;;24.65;16.35;;;;;;;16.84;100.00;101333.00;5197690;28;20079;-78
2021/06/07 03:16:56;;;;;;;26.20;17.43;;;;;;;16.85;100.00;101328.59;5180663;28;20108;-79
2021/06/07 03:19:26;;;;;;;25.65;18.42;;;;;;;16.64;100.00;101326.13;5191463;28;20281;-79
2021/06/07 03:21:56;;;;;;;26.30;17.75;;;;;;;16.84;100.00;101324.25;5197997;28;20056;-79
2021/06/07 03:24:27;;;;;;;26.08;16.92;;;;;;;16.99;100.00;101329.59;5197643;28;20038;-79
2021/06/07 03:26:57;;;;;;;23.23;16.63;;;;;;;17.06;100.00;101322.22;5207237;28;20036;-78
2021/06/07 03:29:27;;;;;;;21.50;15.65;;;;;;;16.92;100.00;101322.94;5191860;28;20038;-79
2021/06/07 03:31:58;;;;;;;22.07;15.93;;;;;;;16.83;100.00;101333.09;5198254;28;20314;-79
2021/06/07 03:34:28;;;;;;;20.98;15.55;;;;;;;16.91;100.00;101330.91;5198882;28;20375;-78
2021/06/07 03:36:58;;;;;;;20.88;14.93;;;;;;;16.82;100.00;101336.66;5196806;28;20033;-78
2021/06/07 03:39:29;;;;;;;22.27;14.75;;;;;;;16.57;100.00;101333.50;5198527;28;20033;-78
2021/06/07 03:42:00;;;;;;;19.40;13.65;;;;;;;16.67;100.00;101332.13;5194795;28;20030;-78
2021/06/07 03:44:30;;;;;;;17.67;13.77;;;;;;;16.71;100.00;101328.41;5199314;28;20025;-78
2021/06/07 03:47:01;;;;;;;25.02;14.95;;;;;;;16.63;100.00;101327.94;5196718;28;20104;-79
2021/06/07 03:49:31;;;;;;;19.08;14.35;;;;;;;16.63;100.00;101330.56;5194408;28;20022;-78
2021/06/07 03:52:02;;;;;;;21.40;13.85;;;;;;;16.69;100.00;101335.53;5199418;28;20458;-78
2021/06/07 03:54:32;;;;;;;18.50;14.57;;;;;;;16.59;100.00;101336.91;5194498;28;20153;-79
2021/06/07 03:57:05;;;;;;;23.92;14.73;;;;;;;16.68;100.00;101338.25;5194412;28;20032;-79
2021/06/07 03:59:35;;;;;;;23.17;15.35;;;;;;;16.72;100.00;101340.66;5175657;28;20030;-78
2021/06/07 04:02:09;;;;;;;21.15;15.43;;;;;;;16.65;100.00;101336.63;5197181;28;20060;-78
2021/06/07 04:04:41;;;;;;;22.60;15.15;;;;;;;16.50;100.00;101344.41;5195178;28;20026;-79
2021/06/07 04:07:11;;;;;;;23.45;15.63;;;;;;;16.53;100.00;101342.50;5193134;28;20029;-79
2021/06/07 04:09:42;;;;;;;23.23;16.48;;;;;;;16.62;100.00;101339.41;5197716;28;20025;-79
2021/06/07 04:12:13;;;;;;;22.58;15.70;;;;;;;16.49;100.00;101348.84;5203149;28;20021;-78
2021/06/07 04:14:43;;;;;;;26.42;16.33;;;;;;;16.53;100.00;101349.56;5198530;28;20113;-80
2021/06/07 04:17:13;;;;;;;24.38;16.35;;;;;;;16.64;100.00;101348.13;5197757;28;20036;-78
2021/06/07 04:19:44;;;;;;;24.77;16.75;;;;;;;16.62;100.00;101349.97;5194996;28;20037;-78
2021/06/07 04:22:15;;;;;;;25.45;17.10;;;;;;;16.45;100.00;101347.28;5197507;28;20384;-80
2021/06/07 04:24:46;;;;;;;22.98;16.67;;;;;;;16.57;100.00;101346.69;5199940;28;20042;-79
2021/06/07 04:27:16;;;;;;;23.02;17.88;;;;;;;16.62;100.00;101346.47;5197430;28;20675;-80
2021/06/07 04:29:48;;;;;;;25.08;18.65;;;;;;;16.72;100.00;101348.59;5201817;28;20410;-78
2021/06/07 04:32:18;;;;;;;24.33;18.00;;;;;;;16.60;100.00;101351.84;5180212;28;20568;-77
2021/06/07 04:34:49;;;;;;;25.23;18.02;;;;;;;16.52;100.00;101346.06;5197749;28;20033;-79
2021/06/07 04:37:19;;;;;;;24.83;18.73;;;;;;;16.36;100.00;101352.97;5195621;28;20021;-77
2021/06/07 04:39:49;;;;;;;27.77;19.70;;;;;;;16.49;100.00;101354.13;5196103;28;20045;-77
2021/06/07 04:42:19;;;;;;;30.55;19.63;;;;;;;16.62;100.00;101343.84;5196721;28;20021;-78
2021/06/07 04:44:50;;;;;;;29.10;19.85;;;;;;;16.63;100.00;101351.69;5196791;28;20030;-78
2021/06/07 04:47:20;;;;;;;26.38;19.58;;;;;;;16.64;100.00;101345.47;5196595;28;20022;-78
2021/06/07 04:49:50;;;;;;;23.67;18.35;;;;;;;16.71;100.00;101349.53;5196612;28;20038;-78
2021/06/07 04:52:22;;;;;;;26.13;18.95;;;;;;;16.76;100.00;101347.50;5196308;28;20030;-79
2021/06/07 04:54:52;;;;;;;29.45;19.27;;;;;;;16.75;100.00;101342.31;5197103;28;20508;-79
2021/06/07 04:57:22;;;;;;;26.73;20.15;;;;;;;16.75;100.00;101339.69;5196782;28;20091;-78
2021/06/07 04:59:53;;;;;;;29.50;19.67;;;;;;;16.50;100.00;101341.78;5201939;28;20057;-78
2021/06/07 05:02:23;;;;;;;27.30;19.75;;;;;;;16.77;100.00;101340.47;5198619;28;20029;-79
2021/06/07 05:04:54;;;;;;;25.07;18.87;;;;;;;16.75;100.00;101337.88;5194723;28;20555;-78
2021/06/07 05:07:24;;;;;;;25.25;18.67;;;;;;;16.74;100.00;101338.81;5200116;28;20630;-79
2021/06/07 05:09:55;;;;;;;29.87;19.13;;;;;;;16.78;100.00;101340.41;5195742;28;20570;-78
2021/06/07 05:12:26;;;;;;;26.60;18.65;;;;;;;16.94;100.00;101341.34;5198843;28;20867;-78
2021/06/07 05:14:56;;;;;;;27.42;19.15;;;;;;;16.90;100.00;101342.41;5195521;28;20060;-79
2021/06/07 05:17:27;;;;;;;25.33;18.93;;;;;;;16.84;100.00;101342.72;5196937;28;20156;-79
2021/06/07 05:19:57;;;;;;;26.15;19.73;;;;;;;16.62;100.00;101338.56;5194669;28;20296;-80
2021/06/07 05:22:27;;;;;;;25.30;19.10;;;;;;;16.74;100.00;101332.69;5196646;28;20064;-78
2021/06/07 05:24:57;;;;;;;32.15;19.52;;;;;;;16.79;100.00;101332.38;5196015;28;20287;-79
2021/06/07 05:27:28;;;;;;;31.55;19.67;;;;;;;16.72;100.00;101331.91;5198332;28;20056;-78
2021/06/07 05:30:00;;;;;;;28.85;20.20;;;;;;;16.73;100.00;101334.47;5200960;28;20586;-79
2021/06/07 05:32:30;;;;;;;28.17;18.35;;;;;;;16.96;100.00;101336.84;5197294;28;20108;-78
2021/06/07 05:35:01;;;;;;;26.90;19.45;;;;;;;16.88;100.00;101339.88;5195229;28;20448;-78
2021/06/07 05:37:31;;;;;;;27.10;18.90;;;;;;;16.65;100.00;101344.56;5192868;28;20018;-78
2021/06/07 05:40:04;;;;;;;26.50;18.90;;;;;;;16.99;100.00;101344.63;5194722;28;20067;-79
2021/06/07 05:42:35;;;;;;;24.60;18.98;;;;;;;16.90;100.00;101334.50;5197131;28;20034;-79
2021/06/07 05:45:07;;;;;;;29.23;20.23;;;;;;;16.65;100.00;101339.28;5196215;28;20029;-79
2021/06/07 05:47:39;;;;;;;30.23;19.92;;;;;;;16.82;100.00;101342.78;5193229;28;20026;-79
2021/06/07 05:50:13;;;;;;;27.70;19.65;;;;;;;16.83;100.00;101348.94;5199183;28;20033;-79
2021/06/07 05:52:47;;;;;;;27.90;20.10;;;;;;;16.77;100.00;101349.25;5202546;28;20029;-80
2021/06/07 05:55:21;;;;;;;26.85;20.45;;;;;;;16.90;100.00;101355.63;5200003;28;20034;-80
2021/06/07 05:57:54;;;;;;;29.80;21.35;;;;;;;17.09;100.00;101345.84;5193831;28;20060;-79
2021/06/07 06:00:27;;;;;;;30.30;21.95;;;;;;;16.83;100.00;101351.56;5198691;28;20029;-80
2021/06/07 06:02:58;;;;;;;31.73;21.58;;;;;;;16.97;100.00;101351.75;5191687;28;20030;-80
2021/06/07 06:05:28;;;;;;;27.67;20.60;;;;;;;17.12;100.00;101346.56;5196542;28;20631;-81
2021/06/07 06:07:59;;;;;;;27.90;21.05;;;;;;;17.34;100.00;101349.03;5201364;28;20271;-78
2021/06/07 06:10:29;;;;;;;32.17;21.30;;;;;;;17.32;100.00;101350.84;5198543;28;20036;-81
2021/06/07 06:12:59;;;;;;;31.80;21.98;;;;;;;17.36;100.00;101344.50;5197119;28;20044;-79
2021/06/07 06:15:30;;;;;;;28.98;21.73;;;;;;;17.09;100.00;101346.72;5194756;28;20125;-78
2021/06/07 06:18:00;;;;;;;30.38;21.00;;;;;;;17.30;100.00;101344.78;5197184;28;20021;-80
2021/06/07 06:20:30;;;;;;;27.33;20.33;;;;;;;17.18;100.00;101350.69;5195625;28;20034;-80
2021/06/07 06:23:01;;;;;;;29.58;20.35;;;;;;;17.34;100.00;101344.56;5195808;28;20030;-80
2021/06/07 06:25:31;;;;;;;25.33;19.50;;;;;;;17.19;99.42;101350.63;5197688;28;20034;-79
2021/06/07 06:28:02;;;;;;;23.05;18.85;;;;;;;17.18;98.98;101353.34;5197251;28;20079;-79
2021/06/07 06:30:33;;;;;;;26.15;20.45;;;;;;;17.17;100.00;101354.25;5194638;28;20036;-80
2021/06/07 06:33:03;;;;;;;28.60;21.45;;;;;;;17.27;100.00;101347.56;5193448;28;20100;-79
2021/06/07 06:35:34;;;;;;;28.98;21.15;;;;;;;17.29;100.00;101353.66;5195342;28;20435;-79
2021/06/07 06:38:04;;;;;;;27.30;21.00;;;;;;;17.30;100.00;101353.56;5195811;28;20029;-78
2021/06/07 06:40:37;;;;;;;29.95;22.83;;;;;;;17.30;100.00;101356.22;5193842;28;20026;-78
2021/06/07 06:43:07;;;;;;;32.72;22.60;;;;;;;17.33;100.00;101365.78;5194830;28;20030;-80
2021/06/07 06:45:38;;;;;;;32.20;23.65;;;;;;;17.33;100.00;101360.50;5192274;28;20697;-79
2021/06/07 06:48:09;;;;;;;38.55;23.85;;;;;;;17.41;100.00;101366.25;5194941;28;20059;-79
2021/06/07 06:50:41;;;;;;;33.08;24.08;;;;;;;17.05;100.00;101371.59;5191761;28;20029;-79
2021/06/07 06:53:16;;;;;;;34.65;24.98;;;;;;;17.24;100.00;101371.50;5194649;28;20026;-79
2021/06/07 06:55:48;;;;;;;32.93;24.53;;;;;;;17.07;100.00;101376.78;5192775;28;20034;-79
2021/06/07 06:58:19;;;;;;;37.70;25.15;;;;;;;17.28;100.00;101373.09;5219264;22;20552;-78
2021/06/07 07:00:49;;;;;;;36.08;24.38;;;;;;;17.48;100.00;101371.16;5169785;28;20033;-78
2021/06/07 07:03:21;;;;;;;35.15;24.80;;;;;;;17.49;100.00;101378.16;5190160;28;20057;-78
2021/06/07 07:05:51;;;;;;;34.35;23.58;;;;;;;17.66;100.00;101372.00;5178653;28;20033;-79
2021/06/07 07:08:22;;;;;;;29.15;22.58;;;;;;;17.95;99.20;101372.19;5191957;28;20030;-78
2021/06/07 07:10:53;;;;;;;31.60;22.05;;;;;;;17.98;97.25;101376.47;5182307;28;20107;-78
2021/06/07 07:13:23;;;;;;;25.15;21.55;;;;;;;17.69;99.46;101377.97;5191413;28;20021;-78
2021/06/07 07:15:53;;;;;;;32.22;21.80;;;;;;;17.84;97.01;101381.63;5192052;28;20128;-80
2021/06/07 07:18:24;;;;;;;30.98;21.17;;;;;;;17.80;97.43;101383.56;5183859;28;20103;-80
2021/06/07 07:20:54;;;;;;;30.95;21.17;;;;;;;17.84;97.51;101393.06;5200070;28;20132;-80
2021/06/07 07:23:24;;;;;;;27.97;21.50;;;;;;;17.85;96.83;101386.81;5200659;28;20152;-80
2021/06/07 07:25:55;;;;;;;28.15;20.33;;;;;;;17.97;97.85;101385.34;5197172;28;20292;-81
2021/06/07 07:28:25;;;;;;;28.80;21.73;;;;;;;17.93;96.36;101383.78;5201737;28;20022;-80
2021/06/07 07:30:56;;;;;;;28.38;20.90;;;;;;;17.78;96.26;101396.03;5195958;28;20033;-80
2021/06/07 07:33:26;;;;;;;29.92;22.00;;;;;;;17.75;96.85;101390.91;5202479;28;20471;-81
2021/06/07 07:35:56;;;;;;;32.00;22.27;;;;;;;17.82;96.98;101400.22;5196984;28;20075;-81
2021/06/07 07:38:26;;;;;;;27.10;21.67;;;;;;;17.86;97.25;101388.53;5185950;28;20033;-80
2021/06/07 07:40:57;;;;;;;30.42;22.75;;;;;;;18.03;96.09;101390.31;5198325;28;20823;-81
2021/06/07 07:43:27;;;;;;;33.20;22.42;;;;;;;17.97;95.64;101396.78;5196613;28;20037;-81
2021/06/07 07:45:59;;;;;;;33.17;22.23;;;;;;;18.08;97.25;101393.56;5178087;28;20029;-82
2021/06/07 07:48:29;;;;;;;28.67;21.65;;;;;;;18.16;94.56;101394.00;5193989;28;20655;-81
2021/06/07 07:51:00;;;;;;;32.05;22.30;;;;;;;18.24;94.24;101397.97;5192879;28;20073;-81
2021/06/07 07:53:30;;;;;;;29.05;22.83;;;;;;;18.26;94.22;101393.44;5205323;28;20026;-81
2021/06/07 07:56:01;;;;;;;30.30;22.52;;;;;;;18.37;93.54;101400.81;5185137;28;20022;-81
2021/06/07 07:58:31;;;;;;;32.80;23.33;;;;;;;18.45;93.92;101399.47;5182111;28;20502;-80
2021/06/07 08:01:02;;;;;;;33.93;23.67;;;;;;;18.33;94.62;101399.28;5200315;28;20036;-83
2021/06/07 08:03:33;;;;;;;32.42;23.75;;;;;;;18.42;93.99;101404.06;5184087;28;20280;-80
2021/06/07 08:06:03;;;;;;;35.72;24.80;;;;;;;18.20;94.56;101398.19;5183299;28;20532;-79
2021/06/07 08:08:36;;;;;;;30.98;22.77;;;;;;;18.51;95.57;101403.59;5206773;28;20026;-80
2021/06/07 08:11:06;;;;;;;30.20;23.27;;;;;;;18.56;95.53;101394.44;5200767;28;20029;-82
2021/06/07 08:13:36;;;;;;;32.92;24.20;;;;;;;19.15;90.96;101402.53;5186759;28;20040;-81
2021/06/07 08:16:07;;;;;;;31.00;22.65;;;;;;;19.12;90.09;101392.94;5183071;28;20025;-81
2021/06/07 08:18:37;;;;;;;31.30;22.30;;;;;;;20.04;85.90;101385.66;5199133;28;20026;-82
2021/06/07 08:21:08;;;;;;;28.20;21.65;;;;;;;20.71;84.17;101393.75;5180077;28;20064;-82
2021/06/07 08:23:38;;;;;;;33.42;23.55;;;;;;;20.42;85.27;101389.44;5200636;28;20099;-81
2021/06/07 08:26:08;;;;;;;31.40;23.05;;;;;;;20.95;82.90;101386.88;5186750;28;20029;-82
2021/06/07 08:28:39;;;;;;;26.48;20.10;;;;;;;22.31;78.79;101382.75;5185536;28;20530;-80
2021/06/07 08:31:09;;;;;;;29.58;21.02;;;;;;;23.13;75.97;101370.44;5200537;28;20028;-82
2021/06/07 08:33:39;;;;;;;33.90;21.05;;;;;;;22.32;77.95;101380.91;5186442;28;20028;-83
2021/06/07 08:36:10;;;;;;;25.63;18.05;;;;;;;24.19;73.52;101364.78;5209366;28;20036;-82
2021/06/07 08:38:41;;;;;;;27.00;18.77;;;;;;;24.39;73.06;101365.88;5197941;28;20026;-81
2021/06/07 08:41:12;;;;;;;24.90;17.08;;;;;;;24.56;69.46;101374.25;5206766;28;20104;-81
2021/06/07 08:43:43;;;;;;;24.42;17.83;;;;;;;23.73;73.09;101369.31;5180547;28;20098;-82
2021/06/07 08:46:13;;;;;;;23.08;17.40;;;;;;;23.67;73.71;101371.63;5201789;28;20653;-80
2021/06/07 08:48:44;;;;;;;27.73;17.65;;;;;;;22.75;76.39;101375.94;5197462;28;20046;-83
2021/06/07 08:51:14;;;;;;;27.23;18.15;;;;;;;22.34;77.57;101378.97;5199889;28;20026;-81
2021/06/07 08:53:46;;;;;;;27.77;18.25;;;;;;;21.60;79.57;101375.34;5189156;28;20543;-81
2021/06/07 08:56:17;;;;;;;25.33;18.40;;;;;;;20.97;81.52;101377.84;5183728;28;20030;-82
2021/06/07 08:58:48;;;;;;;26.48;19.15;;;;;;;20.75;81.16;101379.31;5179793;28;20482;-80
2021/06/07 09:01:18;;;;;;;26.65;18.73;;;;;;;20.74;82.34;101377.59;5183235;28;20040;-81
2021/06/07 09:03:48;;;;;;;26.15;17.95;;;;;;;20.58;82.69;101376.00;5204056;28;20041;-80
2021/06/07 09:06:26;;;;;;;26.33;18.65;;;;;;;21.03;79.84;101374.78;5201070;28;20056;-81
2021/06/07 09:09:07;;;;;;;27.70;17.95;;;;;;;21.96;77.54;101375.50;5205287;28;20073;-81
2021/06/07 09:11:46;;;;;;;27.80;18.27;;;;;;;21.59;78.32;101374.47;5204106;28;20075;-81
2021/06/07 09:14:23;;;;;;;25.08;17.67;;;;;;;20.96;80.04;101383.25;5209010;28;20010;-80
2021/06/07 09:16:55;;;;;;;26.80;17.30;;;;;;;21.42;78.33;101377.44;5197061;28;20422;-80
2021/06/07 09:19:30;;;;;;;23.77;15.75;;;;;;;23.37;73.29;101369.47;5203016;28;20033;-82
2021/06/07 09:22:22;;;;;;;19.20;13.07;;;;;;;25.25;67.65;101358.66;5220396;28;20022;-82
2021/06/07 09:25:14;;;;;;;19.05;12.88;;;;;;;25.32;65.97;101359.00;5200387;28;20030;-82
2021/06/07 09:27:59;;;;;;;15.57;11.85;;;;;;;25.43;64.69;101366.94;5194296;28;20022;-82
2021/06/07 09:30:33;;;;;;;17.23;12.38;;;;;;;26.22;64.39;101361.81;5213493;28;20044;-82
2021/06/07 09:33:28;;;;;;;18.45;12.70;;;;;;;25.92;62.04;101364.50;5196544;28;20036;-82
2021/06/07 09:36:18;;;;;;;20.43;13.70;;;;;;;24.11;69.37;101364.56;5213943;28;20036;-82
2021/06/07 09:38:57;;;;;;;19.20;13.23;;;;;;;24.36;67.65;101361.63;5216895;28;20273;-82
2021/06/07 09:41:31;;;;;;;16.60;13.02;;;;;;;23.58;71.96;101364.31;5190182;28;20289;-79
2021/06/07 09:44:03;;;;;;;27.23;15.43;;;;;;;23.12;72.85;101361.63;5201640;28;20022;-79
2021/06/07 09:46:33;;;;;;;23.42;16.50;;;;;;;23.00;73.60;101359.81;5203613;28;20025;-79
2021/06/07 09:49:16;;;;;;;22.80;15.65;;;;;;;22.92;75.06;101367.56;5205895;28;20053;-81
2021/06/07 09:51:59;;;;;;;24.23;16.25;;;;;;;22.18;77.91;101368.56;5195193;28;20037;-81
2021/06/07 09:54:29;;;;;;;23.80;16.95;;;;;;;21.69;79.48;101372.94;5214919;28;20017;-81
2021/06/07 09:57:01;;;;;;;25.13;17.13;;;;;;;21.77;79.90;101378.59;5212417;28;20044;-81
2021/06/07 09:59:38;;;;;;;23.45;16.92;;;;;;;22.11;78.59;101371.78;5194204;28;20288;-81
2021/06/07 10:02:19;;;;;;;24.20;17.25;;;;;;;22.18;77.63;101368.56;5193064;28;20029;-81
2021/06/07 10:04:55;;;;;;;26.27;16.38;;;;;;;22.26;77.10;101381.34;5209328;28;20075;-81
2021/06/07 10:07:26;;;;;;;23.85;17.08;;;;;;;21.98;76.41;101379.78;5214729;28;20026;-81
2021/06/07 10:10:18;;;;;;;25.60;16.70;;;;;;;22.03;77.05;101374.97;5193331;28;20060;-80
2021/06/07 10:12:48;;;;;;;24.73;16.20;;;;;;;22.29;77.38;101378.47;5194597;28;20040;-80
2021/06/07 10:15:43;;;;;;;26.13;17.30;;;;;;;22.67;76.94;101373.94;5196946;28;20042;-82
2021/06/07 10:18:20;;;;;;;24.95;16.05;;;;;;;22.55;76.82;101377.47;5194026;28;20025;-81
2021/06/07 10:20:51;;;;;;;21.88;14.98;;;;;;;22.76;77.14;101376.78;5201959;28;20044;-82
2021/06/07 10:23:27;;;;;;;20.55;15.38;;;;;;;22.47;77.20;101372.72;5180356;28;20026;-82
2021/06/07 10:26:00;;;;;;;20.42;14.93;;;;;;;23.17;77.22;101370.13;5203296;28;20093;-81
2021/06/07 10:28:33;;;;;;;18.70;13.60;;;;;;;23.02;77.01;101367.72;5181900;28;20026;-81
2021/06/07 10:31:16;;;;;;;23.95;15.20;;;;;;;23.11;74.74;101367.03;5194236;28;20022;-80
2021/06/07 10:33:55;;;;;;;22.77;15.38;;;;;;;23.25;72.82;101369.53;5181430;28;20038;-81
2021/06/07 10:36:26;;;;;;;22.58;16.60;;;;;;;22.11;77.37;101372.59;5201070;28;20025;-81
2021/06/07 10:39:15;;;;;;;22.23;16.10;;;;;;;22.13;79.50;101377.84;5186449;28;20033;-81
2021/06/07 10:41:47;;;;;;;26.95;17.50;;;;;;;21.91;79.05;101375.00;5190598;28;20068;-82
2021/06/07 10:44:58;;;;;;;24.20;16.67;;;;;;;22.15;79.76;101378.59;5199388;28;20493;-82
2021/06/07 10:47:41;;;;;;;24.08;15.68;;;;;;;22.36;79.27;101371.72;5134600;28;20046;-81
2021/06/07 10:50:14;;;;;;;23.83;16.45;;;;;;;22.74;76.47;101374.22;5170213;28;20141;-81
2021/06/07 10:52:50;;;;;;;22.55;15.18;;;;;;;22.93;75.78;101371.91;5178176;28;20151;-80
2021/06/07 10:55:24;;;;;;;21.80;14.77;;;;;;;22.58;79.43;101371.94;5179143;28;20034;-82
2021/06/07 10:58:03;;;;;;;22.15;15.20;;;;;;;22.79;76.94;101376.53;5179880;28;20368;-80
2021/06/07 11:00:57;;;;;;;23.08;15.73;;;;;;;22.67;76.94;101375.63;5181178;28;20036;-80
2021/06/07 11:03:33;;;;;;;28.00;16.70;;;;;;;22.43;77.32;101373.88;5200225;28;20420;-83
2021/06/07 11:06:05;;;;;;;23.25;16.17;;;;;;;22.19;77.33;101374.72;5199646;28;20068;-82
2021/06/07 11:08:37;;;;;;;21.27;16.20;;;;;;;22.55;79.50;101374.81;5184799;28;20087;-81
2021/06/07 11:11:22;;;;;;;22.85;15.20;;;;;;;22.75;78.17;101370.59;5183204;28;20029;-82
2021/06/07 11:14:00;;;;;;;23.35;16.30;;;;;;;23.05;79.17;101362.97;5184391;28;20661;-80
2021/06/07 11:16:32;;;;;;;26.00;17.00;;;;;;;22.73;79.32;101370.84;5196399;28;20029;-81
2021/06/07 11:19:07;;;;;;;24.23;16.60;;;;;;;22.53;77.86;101371.41;5185129;28;20014;-80
2021/06/07 11:21:43;;;;;;;20.83;15.57;;;;;;;22.29;76.68;101370.47;5181654;28;20030;-83
2021/06/07 11:24:30;;;;;;;26.63;16.80;;;;;;;22.68;78.04;101368.50;5198330;28;20028;-82
2021/06/07 11:27:04;;;;;;;25.20;16.48;;;;;;;22.67;77.82;101369.47;5182011;28;20033;-82